createdAt,value
2022-10-30T00:00:44.702Z,118.03
2022-10-30T00:05:44.713Z,118.55
2022-10-30T00:10:41.405Z,121.28
2022-10-30T00:15:37.675Z,121.90
2022-10-30T00:20:35.965Z,121.75
2022-10-30T00:25:32.181Z,121.13
2022-10-30T00:30:28.463Z,120.55
2022-10-30T00:35:24.681Z,116.43
2022-10-30T00:40:21.029Z,123.70
2022-10-30T00:45:17.597Z,115.20
2022-10-30T00:50:16.770Z,115.95
2022-10-30T00:55:15.585Z,117.88
2022-10-30T01:00:12.158Z,118.28
2022-10-30T01:10:06.657Z,117.70
2022-10-30T01:15:03.088Z,116.57
2022-10-30T01:20:06.278Z,126.55
2022-10-30T01:25:05.444Z,123.43
2022-10-30T01:30:07.655Z,122.63
2022-10-30T01:35:22.035Z,122.60
2022-10-30T01:40:18.931Z,126.38
2022-10-30T01:45:35.374Z,124.78
2022-10-30T01:50:47.466Z,125.22
2022-10-30T01:56:13.848Z,126.85
2022-10-30T02:01:10.338Z,120.80
2022-10-30T02:06:06.656Z,123.45
2022-10-30T02:11:03.161Z,121.78
2022-10-30T02:15:59.375Z,122.38
2022-10-30T02:20:55.790Z,125.28
2022-10-30T02:25:52.028Z,122.70
2022-10-30T02:30:48.227Z,121.07
2022-10-30T02:35:44.439Z,121.03
2022-10-30T02:40:40.755Z,123.72
2022-10-30T02:45:36.969Z,126.50
2022-10-30T02:50:33.293Z,121.20
2022-10-30T02:55:29.518Z,122.53
2022-10-30T03:00:25.753Z,122.82
2022-10-30T03:05:22.218Z,121.75
2022-10-30T03:10:18.575Z,123.88
2022-10-30T03:15:14.778Z,121.65
2022-10-30T03:20:11.178Z,121.20
2022-10-30T03:25:07.741Z,121.97
2022-10-30T03:30:04.087Z,123.75
2022-10-30T03:35:00.303Z,120.80
2022-10-30T03:39:56.510Z,121.57
2022-10-30T03:44:52.729Z,121.05
2022-10-30T03:49:48.940Z,123.45
2022-10-30T03:54:45.180Z,121.43
2022-10-30T03:59:41.377Z,124.20
2022-10-30T04:04:37.570Z,118.88
2022-10-30T04:09:33.781Z,120.38
2022-10-30T04:14:29.971Z,118.57
2022-10-30T04:19:26.149Z,124.82
2022-10-30T04:24:22.521Z,120.38
2022-10-30T04:29:18.730Z,120.40
2022-10-30T04:34:15.019Z,124.07
2022-10-30T04:39:11.240Z,120.18
2022-10-30T04:44:07.436Z,121.55
2022-10-30T04:49:03.682Z,118.47
2022-10-30T04:53:59.892Z,118.13
2022-10-30T04:58:56.118Z,116.00
2022-10-30T05:03:54.693Z,116.65
2022-10-30T05:08:51.366Z,118.30
2022-10-30T05:13:47.932Z,112.57
2022-10-30T05:18:44.138Z,112.68
2022-10-30T05:23:40.387Z,114.20
2022-10-30T05:28:36.590Z,112.47
2022-10-30T05:33:32.813Z,112.82
2022-10-30T05:38:29.134Z,113.38
2022-10-30T05:43:25.402Z,112.40
2022-10-30T05:48:21.736Z,112.90
2022-10-30T05:53:17.936Z,111.90
2022-10-30T05:58:14.182Z,110.55
2022-10-30T06:03:11.805Z,117.40
2022-10-30T06:08:08.014Z,117.53
2022-10-30T06:13:05.642Z,111.85
2022-10-30T06:18:02.256Z,112.95
2022-10-30T06:22:59.845Z,114.95
2022-10-30T06:27:56.510Z,115.25
2022-10-30T06:33:00.612Z,115.80
2022-10-30T06:38:01.117Z,112.85
2022-10-30T06:42:58.087Z,118.18
2022-10-30T06:47:54.602Z,111.40
2022-10-30T06:52:51.222Z,114.88
2022-10-30T06:57:53.418Z,114.70
2022-10-30T07:03:00.178Z,113.50
2022-10-30T07:07:57.227Z,115.95
2022-10-30T07:12:54.429Z,112.35
2022-10-30T07:17:58.208Z,106.57
2022-10-30T07:22:54.746Z,105.00
2022-10-30T07:27:51.882Z,105.03
2022-10-30T07:32:56.974Z,105.93
2022-10-30T07:37:53.754Z,106.30
2022-10-30T07:42:55.225Z,101.60
2022-10-30T07:47:51.515Z,103.85
2022-10-30T07:52:47.853Z,105.70
2022-10-30T07:57:44.173Z,105.50
2022-10-30T08:02:40.760Z,107.10
2022-10-30T08:07:37.795Z,110.65
2022-10-30T08:12:34.667Z,107.82
2022-10-30T08:17:30.990Z,109.25
2022-10-30T08:22:27.289Z,107.05
2022-10-30T08:27:23.476Z,108.32
2022-10-30T08:32:19.702Z,109.40
2022-10-30T08:37:17.300Z,113.95
2022-10-30T08:42:13.538Z,114.63
2022-10-30T08:47:09.757Z,108.05
2022-10-30T08:52:09.310Z,113.90
2022-10-30T08:57:06.580Z,110.28
2022-10-30T09:02:02.952Z,110.13
2022-10-30T09:07:00.802Z,110.43
2022-10-30T09:11:57.018Z,112.90
2022-10-30T09:16:54.325Z,117.93
2022-10-30T09:21:50.578Z,123.05
2022-10-30T09:26:46.797Z,117.97
2022-10-30T09:31:43.050Z,122.85
2022-10-30T09:36:39.313Z,130.27
2022-10-30T09:41:35.763Z,125.50
2022-10-30T09:46:41.506Z,121.32
2022-10-30T09:51:37.770Z,91.93
2022-10-30T09:56:43.410Z,67.95
2022-10-30T10:01:42.820Z,56.63
2022-10-30T10:06:43.027Z,45.05
2022-10-30T10:11:40.965Z,41.22
2022-10-30T10:16:39.167Z,38.53
2022-10-30T10:21:39.478Z,36.97
2022-10-30T10:26:58.743Z,36.33
2022-10-30T10:31:57.807Z,33.20
2022-10-30T10:37:20.241Z,30.63
2022-10-30T10:42:19.392Z,32.10
2022-10-30T10:47:34.196Z,34.88
2022-10-30T10:52:36.167Z,34.30
2022-10-30T10:57:33.433Z,31.70
2022-10-30T11:02:32.856Z,30.92
2022-10-30T11:07:33.496Z,27.83
2022-10-30T11:12:33.923Z,27.08
2022-10-30T11:17:40.247Z,29.00
2022-10-30T11:22:42.785Z,27.45
2022-10-30T11:27:39.051Z,28.92
2022-10-30T11:32:35.391Z,26.98
2022-10-30T11:37:32.930Z,24.50
2022-10-30T11:42:29.469Z,24.98
2022-10-30T11:47:31.591Z,26.92
2022-10-30T11:52:28.224Z,27.83
2022-10-30T11:57:30.255Z,22.45
2022-10-30T12:02:28.374Z,25.63
2022-10-30T12:07:27.883Z,24.20
2022-10-30T12:12:33.051Z,25.00
2022-10-30T12:17:29.791Z,19.48
2022-10-30T12:22:32.946Z,25.52
2022-10-30T12:27:29.858Z,19.25
2022-10-30T12:32:28.352Z,18.65
2022-10-30T12:37:26.434Z,16.88
2022-10-30T12:42:24.779Z,20.02
2022-10-30T12:47:20.987Z,19.90
2022-10-30T12:52:23.745Z,22.67
2022-10-30T12:57:27.911Z,18.83
2022-10-30T13:02:33.353Z,20.80
2022-10-30T13:07:33.598Z,21.38
2022-10-30T13:12:32.218Z,20.83
2022-10-30T13:17:29.147Z,23.40
2022-10-30T13:22:30.769Z,24.38
2022-10-30T13:27:38.651Z,26.13
2022-10-30T13:32:41.160Z,19.48
2022-10-30T13:37:55.337Z,20.83
2022-10-30T13:43:00.699Z,21.02
2022-10-30T13:48:15.514Z,22.08
2022-10-30T13:53:15.470Z,17.73
2022-10-30T13:58:34.403Z,19.33
2022-10-30T14:03:55.246Z,18.85
2022-10-30T14:09:03.310Z,23.20
2022-10-30T14:14:24.013Z,20.63
2022-10-30T14:19:20.217Z,22.02
2022-10-30T14:24:16.540Z,22.00
2022-10-30T14:29:32.191Z,23.02
2022-10-30T14:34:44.870Z,21.20
2022-10-30T14:44:46.444Z,23.27
2022-10-30T14:49:45.761Z,26.42
2022-10-30T14:54:51.778Z,28.75
2022-10-30T14:59:48.001Z,31.30
2022-10-30T15:04:52.485Z,31.98
2022-10-30T15:10:00.629Z,33.85
2022-10-30T15:14:59.262Z,32.33
2022-10-30T15:19:55.863Z,38.58
2022-10-30T15:24:52.105Z,44.05
2022-10-30T15:30:00.628Z,45.65
2022-10-30T15:35:00.038Z,54.00
2022-10-30T15:40:15.005Z,58.20
2022-10-30T15:45:15.852Z,59.22
2022-10-30T15:50:12.103Z,62.30
2022-10-30T15:55:12.125Z,68.18
2022-10-30T16:05:21.260Z,73.63
2022-10-30T16:10:18.311Z,73.45
2022-10-30T16:15:28.329Z,81.38
2022-10-30T16:20:24.546Z,81.40
2022-10-30T16:25:21.261Z,82.65
2022-10-30T16:30:17.588Z,87.65
2022-10-30T16:35:14.103Z,94.57
2022-10-30T16:40:12.611Z,91.57
2022-10-30T16:45:11.955Z,91.72
2022-10-30T16:50:12.437Z,97.38
2022-10-30T16:55:13.437Z,99.70
2022-10-30T17:00:18.546Z,97.13
2022-10-30T17:05:34.123Z,100.90
2022-10-30T17:10:44.410Z,102.72
2022-10-30T17:15:41.509Z,100.15
2022-10-30T17:20:37.912Z,102.82
2022-10-30T17:25:35.770Z,103.00
2022-10-30T17:30:36.721Z,102.85
2022-10-30T17:35:33.820Z,108.03
2022-10-30T17:40:31.093Z,109.78
2022-10-30T17:45:27.341Z,109.85
2022-10-30T17:50:23.564Z,109.50
2022-10-30T17:55:22.429Z,115.80
2022-10-30T18:00:18.777Z,112.80
2022-10-30T18:05:17.461Z,111.40
2022-10-30T18:10:13.692Z,112.35
2022-10-30T18:15:15.983Z,115.82
2022-10-30T18:20:12.205Z,119.50
2022-10-30T18:25:34.734Z,120.10
2022-10-30T18:30:31.047Z,117.53
2022-10-30T18:35:27.308Z,115.30
2022-10-30T18:40:23.830Z,120.88
2022-10-30T18:45:24.347Z,121.22
2022-10-30T18:50:21.695Z,131.40
2022-10-30T18:55:25.212Z,130.60
2022-10-30T19:00:25.867Z,127.78
2022-10-30T19:05:25.508Z,129.95
2022-10-30T19:10:22.421Z,128.45
2022-10-30T19:15:20.719Z,129.57
2022-10-30T19:20:16.925Z,128.73
2022-10-30T19:25:17.379Z,123.50
2022-10-30T19:30:13.828Z,122.13
2022-10-30T19:35:10.604Z,122.55
2022-10-30T19:40:13.023Z,124.88
2022-10-30T19:45:09.678Z,124.00
2022-10-30T19:50:22.918Z,127.43
2022-10-30T19:55:19.770Z,124.05
2022-10-30T20:00:18.137Z,129.68
2022-10-30T20:05:15.741Z,127.65
2022-10-30T20:10:16.183Z,129.13
2022-10-30T20:15:13.735Z,128.52
2022-10-30T20:20:14.755Z,123.25
2022-10-30T20:25:11.033Z,124.15
2022-10-30T20:30:08.053Z,123.00
2022-10-30T20:35:08.837Z,123.57
2022-10-30T20:40:11.581Z,123.45
2022-10-30T20:45:10.570Z,125.18
2022-10-30T20:50:07.195Z,127.72
2022-10-30T20:55:03.585Z,124.97
2022-10-30T20:59:59.852Z,126.03
2022-10-30T21:04:56.102Z,128.05
2022-10-30T21:09:52.315Z,130.10
2022-10-30T21:14:48.544Z,124.18
2022-10-30T21:19:45.192Z,126.50
2022-10-30T21:24:41.486Z,121.65
2022-10-30T21:29:37.701Z,125.57
2022-10-30T21:34:34.036Z,127.53
2022-10-30T21:39:30.884Z,128.70
2022-10-30T21:44:27.197Z,127.53
2022-10-30T21:49:23.385Z,127.50
2022-10-30T21:54:20.053Z,125.80
2022-10-30T21:59:16.258Z,129.82
2022-10-30T22:04:12.542Z,128.43
2022-10-30T22:09:09.279Z,126.25
2022-10-30T22:14:05.983Z,123.50
2022-10-30T22:19:03.029Z,126.85
2022-10-30T22:24:00.273Z,126.15
2022-10-30T22:28:57.706Z,128.27
2022-10-30T22:33:53.918Z,123.60
2022-10-30T22:38:54.404Z,121.03
2022-10-30T22:43:51.505Z,123.35
2022-10-30T22:48:47.783Z,118.65
2022-10-30T22:53:45.227Z,123.88
2022-10-30T22:58:41.809Z,125.88
2022-10-30T23:03:38.260Z,123.40
2022-10-30T23:08:35.100Z,118.45
2022-10-30T23:13:31.762Z,120.65
2022-10-30T23:18:28.322Z,119.90
2022-10-30T23:23:24.576Z,123.45
2022-10-30T23:28:20.947Z,123.53
2022-10-30T23:33:17.150Z,121.68
2022-10-30T23:38:13.449Z,125.05
2022-10-30T23:43:09.690Z,119.72
2022-10-30T23:48:06.124Z,115.95
2022-10-30T23:53:02.560Z,117.78
2022-10-30T23:57:59.184Z,121.03
